This is the latest recevied weather packets stored in our database for station/object HP1MRA-15. If no packets are shown the sender has not sent any weather packets the latest 10 day(s).
| Time | Temp. | Humidity | Pressure | Rain* | Wind** | Luminosity | Snow |
|---|---|---|---|---|---|---|---|
| 1777924696 | 35.56° C | 56% | 1000.2 hPa | 0 mm | - | - | - |
| 1777924394 | 35.56° C | 55% | 1000.2 hPa | 0 mm | - | - | - |
| 1777924096 | 35.56° C | 54% | 1000.3 hPa | 0 mm | - | - | - |
| 1777923796 | 36.11° C | 53% | 1000.5 hPa | 0 mm | - | - | - |
| 1777923495 | 35.56° C | 52% | 1000.6 hPa | 0 mm | - | - | - |
| 1777923196 | 35.56° C | 52% | 1000.6 hPa | 0 mm | - | - | - |
| 1777922896 | 35.56° C | 52% | 1000.6 hPa | 0 mm | - | - | - |
| 1777922595 | 36.11° C | 52% | 1000.6 hPa | 0 mm | - | - | - |
| 1777922295 | 36.67° C | 51% | 1000.6 hPa | 0 mm | - | - | - |
| 1777921996 | 37.22° C | 50% | 1000.7 hPa | 0 mm | - | - | - |
| 1777921695 | 37.78° C | 51% | 1000.8 hPa | 0 mm | - | - | - |
| 1777921395 | 37.78° C | 50% | 1000.8 hPa | 0 mm | - | - | - |
| 1777921096 | 37.78° C | 49% | 1000.9 hPa | 0 mm | - | - | - |
| 1777920795 | 38.33° C | 48% | 1000.9 hPa | 0 mm | - | - | - |
| 1777920495 | 38.33° C | 48% | 1000.9 hPa | 0 mm | - | - | - |
| 1777920196 | 39.44° C | 46% | 1001 hPa | 0 mm | - | - | - |
| 1777919895 | 38.89° C | 47% | 1001.1 hPa | 0 mm | - | - | - |
| 1777919595 | 38.33° C | 50% | 1001.2 hPa | 0 mm | - | - | - |
| 1777919295 | 37.78° C | 50% | 1001.3 hPa | 0 mm | - | - | - |
| 1777918995 | 38.33° C | 48% | 1001.4 hPa | 0 mm | - | - | - |
| 1777918696 | 40° C | 44% | 1001.5 hPa | 0 mm | - | - | - |
| 1777918395 | 41.11° C | 44% | 1001.6 hPa | 0 mm | - | - | - |
| 1777918095 | 41.11° C | 44% | 1001.7 hPa | 0 mm | - | - | - |
| 1777917795 | 40.56° C | 46% | 1001.8 hPa | 0 mm | - | - | - |
| 1777917495 | 40° C | 46% | 1001.9 hPa | 0 mm | - | - | - |
* Rain latest hour (hover to see other rain measurements)
** Current wind speed in m/s (hover to see current wind gust speed)